Blue Vision — MRNB — position and weather

sailwx.info

Track history (hours):
 
Tides and Currents Weather Stations Pressure Air Temp Water Temp Dewpoint Dewpoint Depression Visibility Wind Speed Wind Dir Waves Ship Positions

Blue Vision

Last reported at 2015-Jun-30 17:33 UTC. Time now 2015-Jul-03 17:18 UTC.
Position N 41°39' E 008°41'.

Length 45 m; draft 3 m.

Type: Pleasure craft. MMSI: 235054475.

Date/timePositionNaut miles runAvg speedWind from/ knotsBaromVisibWave heightAir tempDewpointWater temp
2015-Jun-30 17:33N 41°39' E 008°41'1514.0
2015-Jun-30 16:28N 41°52' E 008°31'2613.7
2015-Jun-30 14:33N 42°16' E 008°15'8712.5
2015-Jun-30 07:32N 43°34' E 007°22'8 7.8
2015-Jun-30 06:28N 43°42' E 007°17'0 0.0
2015-Jun-30 05:28N 43°42' E 007°17'0 0.0
2015-Jun-30 04:28N 43°42' E 007°17'0 0.0
2015-Jun-30 03:28N 43°42' E 007°17'0 0.0
2015-Jun-30 02:28N 43°42' E 007°17'0 0.0
2015-Jun-30 01:28N 43°42' E 007°17'0 0.0
2015-Jun-30 00:28N 43°42' E 007°17'0 0.0
2015-Jun-29 23:22N 43°42' E 007°17'0 0.0
2015-Jun-29 22:28N 43°42' E 007°17'0 0.0
2015-Jun-29 21:28N 43°42' E 007°17'0 0.0
2015-Jun-29 20:28N 43°42' E 007°17'0 0.0
2015-Jun-29 19:16N 43°42' E 007°17'0 0.0
2015-Jun-29 18:10N 43°42' E 007°17'0 0.0
2015-Jun-29 17:28N 43°42' E 007°17'0 0.0
2015-Jun-29 15:28N 43°42' E 007°17'0 0.0
2015-Jun-29 14:28N 43°42' E 007°17'0 0.0
2015-Jun-29 13:04N 43°42' E 007°17'0 0.0
2015-Jun-29 07:28N 43°42' E 007°17'0 0.0
2015-Jun-29 06:28N 43°42' E 007°17'0 0.0
2015-Jun-29 05:28N 43°42' E 007°17'0 0.0
2015-Jun-29 03:28N 43°42' E 007°17'0 0.0
2015-Jun-29 02:28N 43°42' E 007°17'0 0.0
2015-Jun-29 01:28N 43°42' E 007°17'0 0.0
2015-Jun-29 00:16N 43°42' E 007°17'0 0.0
2015-Jun-28 23:28N 43°42' E 007°17'0 0.0
2015-Jun-28 22:28N 43°42' E 007°17'0 0.0
2015-Jun-28 21:28N 43°42' E 007°17'0 0.0
2015-Jun-28 20:28N 43°42' E 007°17'0 0.0
2015-Jun-28 19:28N 43°42' E 007°17'0 0.0
2015-Jun-28 18:28N 43°42' E 007°17'0 0.0
2015-Jun-28 17:28N 43°42' E 007°17'0 0.0
2015-Jun-28 16:28N 43°42' E 007°17'0 0.0
2015-Jun-28 15:22N 43°42' E 007°17'0 0.0
2015-Jun-28 07:28N 43°42' E 007°17'0 0.0
2015-Jun-28 06:28N 43°42' E 007°17'0 0.0
2015-Jun-28 05:28N 43°42' E 007°17'0 0.0
2015-Jun-28 04:28N 43°42' E 007°17'0 0.0
2015-Jun-28 03:28N 43°42' E 007°17'0 0.0
2015-Jun-28 02:28N 43°42' E 007°17'0 0.0
2015-Jun-28 01:22N 43°42' E 007°17'0 0.0
2015-Jun-28 00:28N 43°42' E 007°17'0 0.0
2015-Jun-27 23:28N 43°42' E 007°17'0 0.0
2015-Jun-27 22:22N 43°42' E 007°17'0 0.0
2015-Jun-27 17:28N 43°42' E 007°17'0 0.0
2015-Jun-27 11:25N 43°42' E 007°17'0 0.1
2015-Jun-27 10:29N 43°42' E 007°17'1011.0
2015-Jun-27 09:33N 43°33' E 007°10'6 1.9
2015-Jun-27 06:28N 43°32' E 007°02'0 0.0
2015-Jun-27 05:22N 43°32' E 007°02'0 0.0
2015-Jun-27 04:22N 43°32' E 007°02'0 0.0
2015-Jun-27 03:16N 43°32' E 007°02'0 0.0
2015-Jun-27 02:22N 43°32' E 007°02'0 0.0
2015-Jun-27 01:16N 43°32' E 007°02'0 0.0
2015-Jun-27 00:16N 43°32' E 007°02'0 0.0
2015-Jun-26 23:22N 43°32' E 007°02'0 0.0
2015-Jun-26 22:22N 43°32' E 007°02'2 2.2
2015-Jun-26 21:33N 43°31' E 007°01'1212.2
2015-Jun-26 20:33N 43°18' E 006°60'9 9.1
2015-Jun-26 19:32N 43°13' E 006°49'6 3.2
2015-Jun-26 17:33N 43°14' E 006°40'24 0.9
2015-Jun-25 15:33N 43°33' E 007°01'4 4.2
2015-Jun-25 14:33N 43°33' E 007°07'0 0.0
2015-Jun-25 13:33N 43°33' E 007°07'0 0.0
2015-Jun-25 12:33N 43°33' E 007°07'0 0.0
2015-Jun-25 11:27N 43°33' E 007°07'1 0.8
2015-Jun-25 10:33N 43°32' E 007°07'  
2015-Jun-21 17:33N 43°30' E 007°04'1413.8
2015-Jun-21 16:33N 43°39' E 007°19'5 3.4
2015-Jun-21 15:13N 43°43' E 007°22'0 0.0
2015-Jun-21 13:07N 43°43' E 007°22'0 0.0
2015-Jun-21 12:13N 43°43' E 007°22'0 0.0
2015-Jun-21 11:31N 43°43' E 007°22'9 8.0
2015-Jun-21 10:25N 43°36' E 007°14'  
Track history (hours):
 
Tides and Currents Weather Stations Pressure Air Temp Water Temp Dewpoint Dewpoint Depression Visibility Wind Speed Wind Dir Waves Ship Positions

Blue Vision

Last reported at 2015-Jun-30 17:33 UTC. Time now 2015-Jul-03 17:18 UTC.
Position N 41°39' E 008°41'.

Length 45 m; draft 3 m.

Type: Pleasure craft. MMSI: 235054475.

Date/timePositionNaut miles runAvg speedWind from/ knotsBaromVisibWave heightAir tempDewpointWater temp
2015-Jun-30 17:33N 41°39' E 008°41'1514.0
2015-Jun-30 16:28N 41°52' E 008°31'2613.7
2015-Jun-30 14:33N 42°16' E 008°15'8712.5
2015-Jun-30 07:32N 43°34' E 007°22'8 7.8
2015-Jun-30 06:28N 43°42' E 007°17'0 0.0
2015-Jun-30 05:28N 43°42' E 007°17'0 0.0
2015-Jun-30 04:28N 43°42' E 007°17'0 0.0
2015-Jun-30 03:28N 43°42' E 007°17'0 0.0
2015-Jun-30 02:28N 43°42' E 007°17'0 0.0
2015-Jun-30 01:28N 43°42' E 007°17'0 0.0
2015-Jun-30 00:28N 43°42' E 007°17'0 0.0
2015-Jun-29 23:22N 43°42' E 007°17'0 0.0
2015-Jun-29 22:28N 43°42' E 007°17'0 0.0
2015-Jun-29 21:28N 43°42' E 007°17'0 0.0
2015-Jun-29 20:28N 43°42' E 007°17'0 0.0
2015-Jun-29 19:16N 43°42' E 007°17'0 0.0
2015-Jun-29 18:10N 43°42' E 007°17'0 0.0
2015-Jun-29 17:28N 43°42' E 007°17'0 0.0
2015-Jun-29 15:28N 43°42' E 007°17'0 0.0
2015-Jun-29 14:28N 43°42' E 007°17'0 0.0
2015-Jun-29 13:04N 43°42' E 007°17'0 0.0
2015-Jun-29 07:28N 43°42' E 007°17'0 0.0
2015-Jun-29 06:28N 43°42' E 007°17'0 0.0
2015-Jun-29 05:28N 43°42' E 007°17'0 0.0
2015-Jun-29 03:28N 43°42' E 007°17'0 0.0
2015-Jun-29 02:28N 43°42' E 007°17'0 0.0
2015-Jun-29 01:28N 43°42' E 007°17'0 0.0
2015-Jun-29 00:16N 43°42' E 007°17'0 0.0
2015-Jun-28 23:28N 43°42' E 007°17'0 0.0
2015-Jun-28 22:28N 43°42' E 007°17'0 0.0
2015-Jun-28 21:28N 43°42' E 007°17'0 0.0
2015-Jun-28 20:28N 43°42' E 007°17'0 0.0
2015-Jun-28 19:28N 43°42' E 007°17'0 0.0
2015-Jun-28 18:28N 43°42' E 007°17'0 0.0
2015-Jun-28 17:28N 43°42' E 007°17'0 0.0
2015-Jun-28 16:28N 43°42' E 007°17'0 0.0
2015-Jun-28 15:22N 43°42' E 007°17'0 0.0
2015-Jun-28 07:28N 43°42' E 007°17'0 0.0
2015-Jun-28 06:28N 43°42' E 007°17'0 0.0
2015-Jun-28 05:28N 43°42' E 007°17'0 0.0
2015-Jun-28 04:28N 43°42' E 007°17'0 0.0
2015-Jun-28 03:28N 43°42' E 007°17'0 0.0
2015-Jun-28 02:28N 43°42' E 007°17'0 0.0
2015-Jun-28 01:22N 43°42' E 007°17'0 0.0
2015-Jun-28 00:28N 43°42' E 007°17'0 0.0
2015-Jun-27 23:28N 43°42' E 007°17'0 0.0
2015-Jun-27 22:22N 43°42' E 007°17'0 0.0
2015-Jun-27 17:28N 43°42' E 007°17'0 0.0
2015-Jun-27 11:25N 43°42' E 007°17'0 0.1
2015-Jun-27 10:29N 43°42' E 007°17'1011.0
2015-Jun-27 09:33N 43°33' E 007°10'6 1.9
2015-Jun-27 06:28N 43°32' E 007°02'0 0.0
2015-Jun-27 05:22N 43°32' E 007°02'0 0.0
2015-Jun-27 04:22N 43°32' E 007°02'0 0.0
2015-Jun-27 03:16N 43°32' E 007°02'0 0.0
2015-Jun-27 02:22N 43°32' E 007°02'0 0.0
2015-Jun-27 01:16N 43°32' E 007°02'0 0.0
2015-Jun-27 00:16N 43°32' E 007°02'0 0.0
2015-Jun-26 23:22N 43°32' E 007°02'0 0.0
2015-Jun-26 22:22N 43°32' E 007°02'2 2.2
2015-Jun-26 21:33N 43°31' E 007°01'1212.2
2015-Jun-26 20:33N 43°18' E 006°60'9 9.1
2015-Jun-26 19:32N 43°13' E 006°49'6 3.2
2015-Jun-26 17:33N 43°14' E 006°40'24 0.9
2015-Jun-25 15:33N 43°33' E 007°01'4 4.2
2015-Jun-25 14:33N 43°33' E 007°07'0 0.0
2015-Jun-25 13:33N 43°33' E 007°07'0 0.0
2015-Jun-25 12:33N 43°33' E 007°07'0 0.0
2015-Jun-25 11:27N 43°33' E 007°07'1 0.8
2015-Jun-25 10:33N 43°32' E 007°07'  
2015-Jun-21 17:33N 43°30' E 007°04'1413.8
2015-Jun-21 16:33N 43°39' E 007°19'5 3.4
2015-Jun-21 15:13N 43°43' E 007°22'0 0.0
2015-Jun-21 13:07N 43°43' E 007°22'0 0.0
2015-Jun-21 12:13N 43°43' E 007°22'0 0.0
2015-Jun-21 11:31N 43°43' E 007°22'9 8.0
2015-Jun-21 10:25N 43°36' E 007°14'  

Dump ship's entire track history